Cincinnati Municipal Airport Lunken Field
KLUK : now visible

Airfield :











YOU CAN JOIN US ON...

 
LOGIN :

Register | Disclaimer

   EN    FR    IT 

 









Legend :    VFR   Marginal VFR   IFR   Intensive IFR   Very Intensive IFR
Visi :
Ceiling :
>= 8 km
>= 3000ft
5 to 8 km
1000 to 3000 ft
1500m to 5 km
500 to 1000 ft
800 to 1500m
200 to 500 ft
< 800m
< 200 ft
Symbols :   Thunderstorms  Fog  Heavy snow  Heavy precipitations  Wind > 20 kt






- Airport Elevation : 483 ft
- IATA code : LUK


KLUK - Cincinnati Municipal Lunken Field

CURRENT METAR :
  • 171853Z 27014G21KT 6SM BR OVC019 M02/M06 A2981 RMK AO2 SLP098 T10221061

EXPIRED METARs :
  • 171753Z 27013KT 8SM OVC021 M02/M06 A2980 RMK AO2 SLP095 60000 T10221061 11017 21028 51016
  • 171653Z 28013G19KT 7SM OVC019 M02/M05 A2979 RMK AO2 SNE49 SLP091 P0000 T10171050

TAF KLUK
Valid from the 17 at 18:00 until the 18 at 18:00 UTC


171738Z 1718/1818 29014G21KT 6SM BR OVC018
FM172100 29010G18KT P6SM BKN025
FM172300 28007KT P6SM SCT018 BKN028
FM180500 24003KT P6SM BKN020
FM181600 20007KT P6SM SCT028 SCT070
KZID FIR / North America



MET'MAP, your aeronautical weather chart ! - Copyright ORBIFLY December 2007 - Disclaimer

ORBIFLY MET'MAP TEAM :

Programming & Development : Alexandra Zaïnal
Concept & original design : Baudouin d'Aumeries
Assistance for programming : Marc-Olivier Méhu
Technical & hardware support : Manuel Goepfert

Contact : metmap@orbifly.com




SOURCES & CREDITS :

   NOAA       Earth
Advisory